sensor_id;sensor_type;location;lat;lon;timestamp;P1;durP1;ratioP1;P2;durP2;ratioP2
11642;SDS011;5877;50.930;6.918;2023-10-13T00:01:31;5.43;;;4.07;;
11642;SDS011;5877;50.930;6.918;2023-10-13T00:06:28;6.73;;;4.13;;
11642;SDS011;5877;50.930;6.918;2023-10-13T00:11:21;5.87;;;4.17;;
11642;SDS011;5877;50.930;6.918;2023-10-13T00:16:14;5.57;;;4.23;;
11642;SDS011;5877;50.930;6.918;2023-10-13T00:21:09;5.43;;;4.03;;
11642;SDS011;5877;50.930;6.918;2023-10-13T00:26:05;8.20;;;4.20;;
11642;SDS011;5877;50.930;6.918;2023-10-13T00:31:06;5.83;;;4.07;;
11642;SDS011;5877;50.930;6.918;2023-10-13T00:36:06;6.20;;;4.50;;
11642;SDS011;5877;50.930;6.918;2023-10-13T00:41:04;8.07;;;5.20;;
11642;SDS011;5877;50.930;6.918;2023-10-13T00:46:07;6.80;;;5.13;;
11642;SDS011;5877;50.930;6.918;2023-10-13T00:51:02;6.40;;;4.50;;
11642;SDS011;5877;50.930;6.918;2023-10-13T00:56:01;5.83;;;4.57;;
11642;SDS011;5877;50.930;6.918;2023-10-13T01:01:00;6.47;;;4.73;;
11642;SDS011;5877;50.930;6.918;2023-10-13T01:06:10;7.00;;;4.87;;
11642;SDS011;5877;50.930;6.918;2023-10-13T01:11:04;6.70;;;4.90;;
11642;SDS011;5877;50.930;6.918;2023-10-13T01:16:01;6.37;;;4.83;;
11642;SDS011;5877;50.930;6.918;2023-10-13T01:20:56;5.87;;;5.07;;
11642;SDS011;5877;50.930;6.918;2023-10-13T01:25:51;6.87;;;4.93;;
11642;SDS011;5877;50.930;6.918;2023-10-13T01:30:46;8.40;;;5.47;;
11642;SDS011;5877;50.930;6.918;2023-10-13T01:35:42;7.70;;;5.37;;
11642;SDS011;5877;50.930;6.918;2023-10-13T01:40:40;5.37;;;4.87;;
11642;SDS011;5877;50.930;6.918;2023-10-13T01:45:35;7.90;;;5.60;;
11642;SDS011;5877;50.930;6.918;2023-10-13T01:50:31;7.23;;;5.33;;
11642;SDS011;5877;50.930;6.918;2023-10-13T01:55:27;8.10;;;5.77;;
11642;SDS011;5877;50.930;6.918;2023-10-13T02:00:21;7.77;;;5.57;;
11642;SDS011;5877;50.930;6.918;2023-10-13T02:05:13;7.90;;;5.60;;
11642;SDS011;5877;50.930;6.918;2023-10-13T02:10:08;6.53;;;5.40;;
11642;SDS011;5877;50.930;6.918;2023-10-13T02:15:05;8.27;;;5.20;;
11642;SDS011;5877;50.930;6.918;2023-10-13T02:19:58;7.23;;;5.60;;
11642;SDS011;5877;50.930;6.918;2023-10-13T02:25:00;6.03;;;5.43;;
11642;SDS011;5877;50.930;6.918;2023-10-13T02:30:05;9.57;;;5.77;;
11642;SDS011;5877;50.930;6.918;2023-10-13T02:35:00;6.80;;;5.40;;
11642;SDS011;5877;50.930;6.918;2023-10-13T02:39:58;7.20;;;5.90;;
11642;SDS011;5877;50.930;6.918;2023-10-13T02:44:53;8.20;;;5.30;;
11642;SDS011;5877;50.930;6.918;2023-10-13T02:49:50;10.00;;;5.90;;
11642;SDS011;5877;50.930;6.918;2023-10-13T02:54:45;7.70;;;5.60;;
11642;SDS011;5877;50.930;6.918;2023-10-13T02:59:44;10.03;;;5.97;;
11642;SDS011;5877;50.930;6.918;2023-10-13T03:04:40;9.67;;;5.50;;
11642;SDS011;5877;50.930;6.918;2023-10-13T03:09:32;10.43;;;5.93;;
11642;SDS011;5877;50.930;6.918;2023-10-13T03:14:33;8.93;;;5.73;;
11642;SDS011;5877;50.930;6.918;2023-10-13T03:19:25;8.43;;;6.20;;
11642;SDS011;5877;50.930;6.918;2023-10-13T03:24:28;9.30;;;6.20;;
11642;SDS011;5877;50.930;6.918;2023-10-13T03:29:28;8.97;;;6.10;;
11642;SDS011;5877;50.930;6.918;2023-10-13T03:34:28;8.37;;;6.00;;
11642;SDS011;5877;50.930;6.918;2023-10-13T03:39:23;7.27;;;5.73;;
11642;SDS011;5877;50.930;6.918;2023-10-13T03:44:24;9.07;;;5.33;;
11642;SDS011;5877;50.930;6.918;2023-10-13T03:49:21;10.27;;;6.13;;
11642;SDS011;5877;50.930;6.918;2023-10-13T03:54:17;8.07;;;5.90;;
11642;SDS011;5877;50.930;6.918;2023-10-13T03:59:11;7.00;;;5.60;;
11642;SDS011;5877;50.930;6.918;2023-10-13T04:04:30;9.80;;;5.57;;
11642;SDS011;5877;50.930;6.918;2023-10-13T04:09:26;8.93;;;6.53;;
11642;SDS011;5877;50.930;6.918;2023-10-13T04:14:21;8.53;;;6.10;;
11642;SDS011;5877;50.930;6.918;2023-10-13T04:19:34;9.13;;;6.30;;
11642;SDS011;5877;50.930;6.918;2023-10-13T04:24:49;6.83;;;5.90;;
11642;SDS011;5877;50.930;6.918;2023-10-13T04:29:45;11.60;;;6.53;;
11642;SDS011;5877;50.930;6.918;2023-10-13T04:34:58;8.93;;;6.13;;
11642;SDS011;5877;50.930;6.918;2023-10-13T04:40:05;7.70;;;5.80;;
11642;SDS011;5877;50.930;6.918;2023-10-13T04:45:02;11.30;;;6.10;;
11642;SDS011;5877;50.930;6.918;2023-10-13T04:50:10;9.73;;;5.83;;
11642;SDS011;5877;50.930;6.918;2023-10-13T04:55:14;10.17;;;5.87;;
11642;SDS011;5877;50.930;6.918;2023-10-13T05:00:25;9.07;;;6.20;;
11642;SDS011;5877;50.930;6.918;2023-10-13T05:05:38;12.43;;;6.27;;
11642;SDS011;5877;50.930;6.918;2023-10-13T05:10:45;9.47;;;6.47;;
11642;SDS011;5877;50.930;6.918;2023-10-13T05:16:03;12.27;;;6.23;;
11642;SDS011;5877;50.930;6.918;2023-10-13T05:21:17;10.23;;;6.20;;
11642;SDS011;5877;50.930;6.918;2023-10-13T05:26:29;8.70;;;5.30;;
11642;SDS011;5877;50.930;6.918;2023-10-13T05:31:40;7.63;;;5.63;;
11642;SDS011;5877;50.930;6.918;2023-10-13T05:36:54;9.03;;;5.57;;
11642;SDS011;5877;50.930;6.918;2023-10-13T05:42:05;9.67;;;5.70;;
11642;SDS011;5877;50.930;6.918;2023-10-13T05:47:16;10.10;;;5.47;;
11642;SDS011;5877;50.930;6.918;2023-10-13T05:52:35;8.43;;;5.07;;
11642;SDS011;5877;50.930;6.918;2023-10-13T05:57:46;6.83;;;5.30;;
11642;SDS011;5877;50.930;6.918;2023-10-13T06:02:58;8.23;;;5.07;;
11642;SDS011;5877;50.930;6.918;2023-10-13T06:08:15;6.90;;;5.07;;
11642;SDS011;5877;50.930;6.918;2023-10-13T06:13:27;10.80;;;5.30;;
11642;SDS011;5877;50.930;6.918;2023-10-13T06:19:00;7.47;;;5.40;;
11642;SDS011;5877;50.930;6.918;2023-10-13T06:24:11;7.07;;;5.40;;
11642;SDS011;5877;50.930;6.918;2023-10-13T06:29:23;8.30;;;5.03;;
11642;SDS011;5877;50.930;6.918;2023-10-13T06:34:16;8.17;;;5.23;;
11642;SDS011;5877;50.930;6.918;2023-10-13T06:39:12;7.03;;;5.10;;
11642;SDS011;5877;50.930;6.918;2023-10-13T06:44:24;7.57;;;4.83;;
11642;SDS011;5877;50.930;6.918;2023-10-13T06:49:17;8.47;;;5.10;;
11642;SDS011;5877;50.930;6.918;2023-10-13T06:54:12;6.90;;;4.57;;
11642;SDS011;5877;50.930;6.918;2023-10-13T06:59:12;7.93;;;4.63;;
11642;SDS011;5877;50.930;6.918;2023-10-13T07:04:08;10.10;;;5.40;;
11642;SDS011;5877;50.930;6.918;2023-10-13T07:09:09;10.03;;;4.87;;
11642;SDS011;5877;50.930;6.918;2023-10-13T07:14:16;10.77;;;4.53;;
11642;SDS011;5877;50.930;6.918;2023-10-13T07:19:09;8.97;;;4.77;;
11642;SDS011;5877;50.930;6.918;2023-10-13T07:24:02;8.03;;;4.50;;
11642;SDS011;5877;50.930;6.918;2023-10-13T07:29:05;11.63;;;4.90;;
11642;SDS011;5877;50.930;6.918;2023-10-13T07:34:01;9.17;;;4.53;;
11642;SDS011;5877;50.930;6.918;2023-10-13T07:39:04;11.33;;;4.50;;
11642;SDS011;5877;50.930;6.918;2023-10-13T07:44:14;14.80;;;4.90;;
11642;SDS011;5877;50.930;6.918;2023-10-13T07:49:06;8.73;;;4.67;;
11642;SDS011;5877;50.930;6.918;2023-10-13T07:54:03;12.13;;;4.80;;
11642;SDS011;5877;50.930;6.918;2023-10-13T07:59:00;10.60;;;4.70;;
11642;SDS011;5877;50.930;6.918;2023-10-13T08:04:09;7.23;;;4.23;;
11642;SDS011;5877;50.930;6.918;2023-10-13T08:09:25;10.50;;;4.40;;
11642;SDS011;5877;50.930;6.918;2023-10-13T08:14:32;8.50;;;4.30;;
11642;SDS011;5877;50.930;6.918;2023-10-13T08:19:32;10.50;;;4.37;;
11642;SDS011;5877;50.930;6.918;2023-10-13T08:24:38;12.90;;;4.23;;
11642;SDS011;5877;50.930;6.918;2023-10-13T08:29:30;12.47;;;4.67;;
11642;SDS011;5877;50.930;6.918;2023-10-13T08:34:47;9.97;;;4.00;;
11642;SDS011;5877;50.930;6.918;2023-10-13T08:39:39;12.33;;;3.80;;
11642;SDS011;5877;50.930;6.918;2023-10-13T08:45:08;14.93;;;4.43;;
11642;SDS011;5877;50.930;6.918;2023-10-13T08:50:21;9.53;;;4.00;;
11642;SDS011;5877;50.930;6.918;2023-10-13T08:55:35;12.73;;;4.20;;
11642;SDS011;5877;50.930;6.918;2023-10-13T09:00:51;8.67;;;4.03;;
11642;SDS011;5877;50.930;6.918;2023-10-13T09:05:51;12.77;;;4.57;;
11642;SDS011;5877;50.930;6.918;2023-10-13T09:10:59;7.00;;;3.90;;
11642;SDS011;5877;50.930;6.918;2023-10-13T09:16:18;12.67;;;4.00;;
11642;SDS011;5877;50.930;6.918;2023-10-13T09:21:36;14.57;;;4.43;;
11642;SDS011;5877;50.930;6.918;2023-10-13T09:26:33;8.93;;;4.00;;
11642;SDS011;5877;50.930;6.918;2023-10-13T09:31:27;7.80;;;4.07;;
11642;SDS011;5877;50.930;6.918;2023-10-13T09:36:27;8.57;;;4.40;;
11642;SDS011;5877;50.930;6.918;2023-10-13T09:41:22;10.70;;;4.53;;
11642;SDS011;5877;50.930;6.918;2023-10-13T09:46:20;7.30;;;4.70;;
11642;SDS011;5877;50.930;6.918;2023-10-13T09:51:18;13.00;;;6.50;;
11642;SDS011;5877;50.930;6.918;2023-10-13T09:56:22;11.93;;;6.07;;
11642;SDS011;5877;50.930;6.918;2023-10-13T10:01:27;12.67;;;5.77;;
11642;SDS011;5877;50.930;6.918;2023-10-13T10:06:26;10.03;;;5.10;;
11642;SDS011;5877;50.930;6.918;2023-10-13T10:22:10;7.37;;;5.27;;
11642;SDS011;5877;50.930;6.918;2023-10-13T10:27:09;7.13;;;4.47;;
11642;SDS011;5877;50.930;6.918;2023-10-13T10:32:12;7.63;;;4.80;;
11642;SDS011;5877;50.930;6.918;2023-10-13T10:37:08;9.88;;;6.32;;
11642;SDS011;5877;50.930;6.918;2023-10-13T10:42:09;11.83;;;7.13;;
11642;SDS011;5877;50.930;6.918;2023-10-13T10:47:11;15.07;;;6.78;;
11642;SDS011;5877;50.930;6.918;2023-10-13T10:52:11;9.37;;;6.70;;
11642;SDS011;5877;50.930;6.918;2023-10-13T10:57:13;12.80;;;6.60;;
11642;SDS011;5877;50.930;6.918;2023-10-13T11:02:29;10.43;;;7.20;;
11642;SDS011;5877;50.930;6.918;2023-10-13T11:07:23;11.82;;;7.53;;
11642;SDS011;5877;50.930;6.918;2023-10-13T11:12:17;11.35;;;7.13;;
11642;SDS011;5877;50.930;6.918;2023-10-13T11:17:18;11.07;;;6.43;;
11642;SDS011;5877;50.930;6.918;2023-10-13T11:22:52;12.93;;;7.72;;
11642;SDS011;5877;50.930;6.918;2023-10-13T11:27:45;12.50;;;6.50;;
11642;SDS011;5877;50.930;6.918;2023-10-13T11:33:04;12.18;;;6.25;;
11642;SDS011;5877;50.930;6.918;2023-10-13T11:37:58;10.63;;;6.30;;
11642;SDS011;5877;50.930;6.918;2023-10-13T11:43:05;11.80;;;5.95;;
11642;SDS011;5877;50.930;6.918;2023-10-13T11:48:05;16.60;;;7.40;;
11642;SDS011;5877;50.930;6.918;2023-10-13T11:53:07;12.15;;;6.70;;
11642;SDS011;5877;50.930;6.918;2023-10-13T11:58:01;12.60;;;7.03;;
11642;SDS011;5877;50.930;6.918;2023-10-13T12:02:58;15.30;;;6.80;;
11642;SDS011;5877;50.930;6.918;2023-10-13T12:08:11;11.77;;;6.60;;
11642;SDS011;5877;50.930;6.918;2023-10-13T12:13:14;11.02;;;6.43;;
11642;SDS011;5877;50.930;6.918;2023-10-13T12:18:08;11.38;;;6.43;;
11642;SDS011;5877;50.930;6.918;2023-10-13T12:23:15;12.87;;;6.10;;
11642;SDS011;5877;50.930;6.918;2023-10-13T12:28:10;10.70;;;5.95;;
11642;SDS011;5877;50.930;6.918;2023-10-13T12:33:12;13.03;;;6.63;;
11642;SDS011;5877;50.930;6.918;2023-10-13T12:38:07;13.40;;;5.63;;
11642;SDS011;5877;50.930;6.918;2023-10-13T12:43:21;10.93;;;5.40;;
11642;SDS011;5877;50.930;6.918;2023-10-13T12:48:52;14.55;;;6.93;;
11642;SDS011;5877;50.930;6.918;2023-10-13T12:53:51;13.17;;;5.90;;
11642;SDS011;5877;50.930;6.918;2023-10-13T12:58:49;11.48;;;6.03;;
11642;SDS011;5877;50.930;6.918;2023-10-13T13:03:46;14.75;;;5.95;;
11642;SDS011;5877;50.930;6.918;2023-10-13T13:08:42;12.68;;;5.82;;
11642;SDS011;5877;50.930;6.918;2023-10-13T13:13:37;13.50;;;6.15;;
11642;SDS011;5877;50.930;6.918;2023-10-13T13:18:29;14.73;;;6.38;;
11642;SDS011;5877;50.930;6.918;2023-10-13T13:23:28;14.88;;;6.22;;
11642;SDS011;5877;50.930;6.918;2023-10-13T13:28:26;17.00;;;6.40;;
11642;SDS011;5877;50.930;6.918;2023-10-13T13:33:32;15.10;;;6.50;;
11642;SDS011;5877;50.930;6.918;2023-10-13T13:38:33;17.77;;;6.32;;
11642;SDS011;5877;50.930;6.918;2023-10-13T13:43:26;12.77;;;6.50;;
11642;SDS011;5877;50.930;6.918;2023-10-13T13:48:45;12.82;;;5.90;;
11642;SDS011;5877;50.930;6.918;2023-10-13T13:53:49;15.75;;;5.53;;
11642;SDS011;5877;50.930;6.918;2023-10-13T13:58:42;13.20;;;5.53;;
11642;SDS011;5877;50.930;6.918;2023-10-13T14:03:54;13.60;;;5.78;;
11642;SDS011;5877;50.930;6.918;2023-10-13T14:09:05;18.35;;;6.45;;
11642;SDS011;5877;50.930;6.918;2023-10-13T14:14:17;14.77;;;5.50;;
11642;SDS011;5877;50.930;6.918;2023-10-13T14:19:31;15.27;;;5.57;;
11642;SDS011;5877;50.930;6.918;2023-10-13T14:24:27;11.98;;;6.00;;
11642;SDS011;5877;50.930;6.918;2023-10-13T14:29:26;16.17;;;7.70;;
11642;SDS011;5877;50.930;6.918;2023-10-13T14:34:21;13.32;;;6.72;;
11642;SDS011;5877;50.930;6.918;2023-10-13T14:39:18;11.38;;;6.53;;
11642;SDS011;5877;50.930;6.918;2023-10-13T14:44:12;15.13;;;7.00;;
11642;SDS011;5877;50.930;6.918;2023-10-13T14:49:06;13.35;;;6.13;;
11642;SDS011;5877;50.930;6.918;2023-10-13T14:54:01;12.65;;;6.75;;
11642;SDS011;5877;50.930;6.918;2023-10-13T14:58:59;17.00;;;6.80;;
11642;SDS011;5877;50.930;6.918;2023-10-13T15:03:53;13.50;;;6.72;;
11642;SDS011;5877;50.930;6.918;2023-10-13T15:08:47;9.90;;;5.60;;
11642;SDS011;5877;50.930;6.918;2023-10-13T15:13:42;9.80;;;5.18;;
11642;SDS011;5877;50.930;6.918;2023-10-13T15:18:36;13.00;;;5.95;;
11642;SDS011;5877;50.930;6.918;2023-10-13T15:23:29;14.27;;;6.13;;
11642;SDS011;5877;50.930;6.918;2023-10-13T15:28:22;11.70;;;5.32;;
11642;SDS011;5877;50.930;6.918;2023-10-13T15:33:19;10.33;;;4.77;;
11642;SDS011;5877;50.930;6.918;2023-10-13T15:38:14;11.27;;;5.40;;
11642;SDS011;5877;50.930;6.918;2023-10-13T15:43:08;8.13;;;4.78;;
11642;SDS011;5877;50.930;6.918;2023-10-13T15:48:00;11.32;;;5.50;;
11642;SDS011;5877;50.930;6.918;2023-10-13T15:53:09;9.27;;;5.03;;
11642;SDS011;5877;50.930;6.918;2023-10-13T15:58:06;7.65;;;4.85;;
11642;SDS011;5877;50.930;6.918;2023-10-13T16:02:59;12.10;;;4.78;;
11642;SDS011;5877;50.930;6.918;2023-10-13T16:07:52;10.15;;;4.43;;
11642;SDS011;5877;50.930;6.918;2023-10-13T16:12:45;9.43;;;4.40;;
11642;SDS011;5877;50.930;6.918;2023-10-13T16:17:40;10.40;;;4.47;;
11642;SDS011;5877;50.930;6.918;2023-10-13T16:22:34;8.97;;;4.03;;
11642;SDS011;5877;50.930;6.918;2023-10-13T16:27:28;8.73;;;5.03;;
11642;SDS011;5877;50.930;6.918;2023-10-13T16:32:23;8.37;;;4.27;;
11642;SDS011;5877;50.930;6.918;2023-10-13T16:37:19;9.63;;;4.17;;
11642;SDS011;5877;50.930;6.918;2023-10-13T16:42:11;7.95;;;4.38;;
11642;SDS011;5877;50.930;6.918;2023-10-13T16:47:06;8.05;;;4.78;;
11642;SDS011;5877;50.930;6.918;2023-10-13T16:51:59;9.20;;;5.05;;
11642;SDS011;5877;50.930;6.918;2023-10-13T16:56:54;9.83;;;4.73;;
11642;SDS011;5877;50.930;6.918;2023-10-13T17:01:47;8.53;;;4.60;;
11642;SDS011;5877;50.930;6.918;2023-10-13T17:06:45;10.53;;;6.13;;
11642;SDS011;5877;50.930;6.918;2023-10-13T17:11:38;8.38;;;4.78;;
11642;SDS011;5877;50.930;6.918;2023-10-13T17:16:34;8.43;;;4.90;;
11642;SDS011;5877;50.930;6.918;2023-10-13T17:21:29;12.17;;;5.53;;
11642;SDS011;5877;50.930;6.918;2023-10-13T17:26:24;7.40;;;5.03;;
11642;SDS011;5877;50.930;6.918;2023-10-13T17:31:19;12.50;;;5.53;;
11642;SDS011;5877;50.930;6.918;2023-10-13T17:36:12;9.33;;;5.67;;
11642;SDS011;5877;50.930;6.918;2023-10-13T17:41:04;11.73;;;5.10;;
11642;SDS011;5877;50.930;6.918;2023-10-13T17:45:59;7.90;;;5.50;;
11642;SDS011;5877;50.930;6.918;2023-10-13T17:50:51;8.43;;;5.28;;
11642;SDS011;5877;50.930;6.918;2023-10-13T17:55:43;8.52;;;4.95;;
11642;SDS011;5877;50.930;6.918;2023-10-13T18:00:36;8.13;;;4.63;;
11642;SDS011;5877;50.930;6.918;2023-10-13T18:05:32;10.55;;;4.55;;
11642;SDS011;5877;50.930;6.918;2023-10-13T18:10:27;10.63;;;5.10;;
11642;SDS011;5877;50.930;6.918;2023-10-13T18:15:26;14.23;;;5.10;;
11642;SDS011;5877;50.930;6.918;2023-10-13T18:20:21;8.45;;;4.90;;
11642;SDS011;5877;50.930;6.918;2023-10-13T18:25:19;8.45;;;4.40;;
11642;SDS011;5877;50.930;6.918;2023-10-13T18:30:19;9.32;;;4.63;;
11642;SDS011;5877;50.930;6.918;2023-10-13T18:35:14;8.75;;;4.70;;
11642;SDS011;5877;50.930;6.918;2023-10-13T18:40:12;9.23;;;4.50;;
11642;SDS011;5877;50.930;6.918;2023-10-13T18:45:10;10.85;;;4.93;;
11642;SDS011;5877;50.930;6.918;2023-10-13T18:50:10;9.73;;;5.43;;
11642;SDS011;5877;50.930;6.918;2023-10-13T18:55:02;8.80;;;5.10;;
11642;SDS011;5877;50.930;6.918;2023-10-13T18:59:57;7.55;;;4.63;;
11642;SDS011;5877;50.930;6.918;2023-10-13T19:04:49;10.60;;;5.53;;
11642;SDS011;5877;50.930;6.918;2023-10-13T19:09:42;11.25;;;4.57;;
11642;SDS011;5877;50.930;6.918;2023-10-13T19:14:36;12.77;;;5.00;;
11642;SDS011;5877;50.930;6.918;2023-10-13T19:19:30;10.75;;;5.88;;
11642;SDS011;5877;50.930;6.918;2023-10-13T19:24:26;10.23;;;4.85;;
11642;SDS011;5877;50.930;6.918;2023-10-13T19:29:22;9.23;;;4.78;;
11642;SDS011;5877;50.930;6.918;2023-10-13T19:34:18;8.18;;;4.70;;
11642;SDS011;5877;50.930;6.918;2023-10-13T19:39:11;11.67;;;5.07;;
11642;SDS011;5877;50.930;6.918;2023-10-13T19:44:11;10.90;;;5.20;;
11642;SDS011;5877;50.930;6.918;2023-10-13T19:49:06;14.02;;;4.82;;
11642;SDS011;5877;50.930;6.918;2023-10-13T19:53:58;10.48;;;5.95;;
11642;SDS011;5877;50.930;6.918;2023-10-13T19:58:53;12.27;;;5.90;;
11642;SDS011;5877;50.930;6.918;2023-10-13T20:03:46;10.80;;;4.70;;
11642;SDS011;5877;50.930;6.918;2023-10-13T20:08:39;12.90;;;5.90;;
11642;SDS011;5877;50.930;6.918;2023-10-13T20:13:31;19.30;;;6.80;;
11642;SDS011;5877;50.930;6.918;2023-10-13T20:18:28;17.13;;;6.00;;
11642;SDS011;5877;50.930;6.918;2023-10-13T20:23:23;13.80;;;6.40;;
11642;SDS011;5877;50.930;6.918;2023-10-13T20:28:17;10.23;;;6.57;;
11642;SDS011;5877;50.930;6.918;2023-10-13T20:33:12;10.83;;;6.33;;
11642;SDS011;5877;50.930;6.918;2023-10-13T20:38:05;13.40;;;6.67;;
11642;SDS011;5877;50.930;6.918;2023-10-13T20:42:58;14.53;;;6.13;;
11642;SDS011;5877;50.930;6.918;2023-10-13T20:47:53;12.70;;;6.33;;
11642;SDS011;5877;50.930;6.918;2023-10-13T20:52:46;11.07;;;7.90;;
11642;SDS011;5877;50.930;6.918;2023-10-13T20:57:44;10.40;;;5.83;;
11642;SDS011;5877;50.930;6.918;2023-10-13T21:02:47;11.20;;;5.70;;
11642;SDS011;5877;50.930;6.918;2023-10-13T21:07:41;13.27;;;5.80;;
11642;SDS011;5877;50.930;6.918;2023-10-13T21:12:33;18.87;;;6.27;;
11642;SDS011;5877;50.930;6.918;2023-10-13T21:17:26;14.40;;;5.83;;
11642;SDS011;5877;50.930;6.918;2023-10-13T21:22:20;11.43;;;5.67;;
11642;SDS011;5877;50.930;6.918;2023-10-13T21:27:13;10.97;;;5.47;;
11642;SDS011;5877;50.930;6.918;2023-10-13T21:32:07;17.30;;;6.03;;
11642;SDS011;5877;50.930;6.918;2023-10-13T21:37:00;10.90;;;6.00;;
11642;SDS011;5877;50.930;6.918;2023-10-13T21:41:53;11.67;;;5.83;;
11642;SDS011;5877;50.930;6.918;2023-10-13T21:46:45;12.27;;;6.30;;
11642;SDS011;5877;50.930;6.918;2023-10-13T21:51:39;14.57;;;6.53;;
11642;SDS011;5877;50.930;6.918;2023-10-13T21:56:31;10.63;;;5.83;;
11642;SDS011;5877;50.930;6.918;2023-10-13T22:01:27;12.13;;;5.97;;
11642;SDS011;5877;50.930;6.918;2023-10-13T22:06:22;14.97;;;6.57;;
11642;SDS011;5877;50.930;6.918;2023-10-13T22:11:14;8.90;;;5.80;;
11642;SDS011;5877;50.930;6.918;2023-10-13T22:16:08;11.47;;;6.10;;
11642;SDS011;5877;50.930;6.918;2023-10-13T22:21:03;11.43;;;6.17;;
11642;SDS011;5877;50.930;6.918;2023-10-13T22:25:55;11.43;;;6.30;;
11642;SDS011;5877;50.930;6.918;2023-10-13T22:30:47;10.43;;;6.30;;
11642;SDS011;5877;50.930;6.918;2023-10-13T22:35:41;9.87;;;6.00;;
11642;SDS011;5877;50.930;6.918;2023-10-13T22:40:35;10.37;;;6.20;;
11642;SDS011;5877;50.930;6.918;2023-10-13T22:45:27;9.70;;;5.70;;
11642;SDS011;5877;50.930;6.918;2023-10-13T22:50:22;10.73;;;6.63;;
11642;SDS011;5877;50.930;6.918;2023-10-13T22:55:17;11.23;;;6.10;;
11642;SDS011;5877;50.930;6.918;2023-10-13T23:00:13;10.30;;;6.67;;
11642;SDS011;5877;50.930;6.918;2023-10-13T23:05:09;13.67;;;6.53;;
